Decoded Metar for LFQB (TROYES in FRANCE) (IATA:QYR) | Meteo·Mobile Aviation Weather
aviador You're here:

LFQB Decoded Metar

TROYES in FRANCE
Report Time2019-01-17 23:00:00
UTC Time2019-01-17 23:25:46
Flight Rules vfr VFR
Wind270° at 06 kt
W.Decomp.*RWY 23: 4.6 kt HW 3.9 kt RCW
RWY 35: 1.0 kt HW 5.9 kt LCW
W.Rank270° ranks 18
Current wind is below 270° avg. (8.8)
Visibility9999 m
Phenomena:N/A
Clouds:N/A
Expected CloudBase > 400 ft AGL from Temp-Dew spread
CeilingNone
Temp-1°C (ISA -15)
Dew Point-2°C (93% RH)
AAT-5.4°C
QNH1019 hPa
Density Alt-1,608 ft
Elevation387 ft
Report Wrong Elevation
Raw Report
LFQB 172300Z AUTO 27006KT CAVOK M01/M02 Q1019=

Extra information for LFQB:More info

Metar Taf Metar & Taf Last 4 Metars F.Rules Stats Wind Profile Meteogram Temp Stats Airport Information Weather charts Add Link Nearby VenuesMetar ALERT Operation Metar Decoded Social comments